Terminal Aerodrome Forecast
Issued by NWS Twin Cities, MN

Home | Current Version | Previous Version | Text Only | Print | Product List | Glossary Off
Versions: 1 2 3 4 5 6 7 8 9 10 11 12 13 14 15 16 17 18 19

395
FTUS43 KMPX 280341 AAB
TAFSTC
TAF AMD
KSTC 280341Z 2804/2824 00000KT 1/4SM FG VV002
     FM281400 16007KT P6SM SCT025 BKN250=

USA.gov is the U.S. government's official web portal to all federal, state and local government web resources and services.